Kirby, WY

3:12 AM MDT on August 02, 2014 (GMT -0600)
Worland Municipal (KWRL) Elev 4226 ft | 43.97 °N, 107.95 °W | Change Station

Current weather conditions updated 19 minutes ago

Partly Cloudy
Partly Cloudy
66 °F
Feels Like 66 °F
N
4
Wind Variable Wind from South

Today is forecast to be nearly the same temperature as yesterday. Partly cloudy with a stray thunderstorm tonight.

Today
High -- | Low -- °F
--% Chance of Precip.
Yesterday
High -- | Low -- °F
Precip. -- in
6:02 AM 8:34 PM
Waxing Crescent, 34% visible
Pressure 30.04 in
Visibility 10.0 miles
Clouds Few 12000 ft
Dew Point 46 °F
Humidity 48%
Rainfall 0.00 in
Snow Depth Not available.
UV 0 out of 12
Pollen 6.90 out of 12
Air Quality Not available.
Flu Activity Not available.
METAR KWRL 020853Z AUTO 17003KT 10SM FEW120 19/08 A3019 RMK AO2 SLP173 T01890078 56001

More Conditions Fewer Conditions

Pressure 30.04 in
Visibility 10.0 miles
Clouds Few 12000 ft
Dew Point 46 °F
Humidity 48%
Rainfall 0.00 in
Snow Depth Not available.
UV 0 out of 12
Pollen 6.90 out of 12
Air Quality Not available.
Flu Activity Not available.
METAR KWRL 020853Z AUTO 17003KT 10SM FEW120 19/08 A3019 RMK AO2 SLP173 T01890078 56001

More Conditions Fewer Conditions

10-Day Weather Forecast

Almanac

Astronomy

Aug. 02, 2014 Rise Set
Actual Time 6:02 AM MDT 8:34 PM MDT
Civil Twilight 5:29 AM MDT 9:07 PM MDT
Nautical Twilight 4:48 AM MDT 9:47 PM MDT
Astronomical Twilight 4:02 AM MDT 10:33 PM MDT
Moon 12:41 PM MDT 11:40 PM MDT
Length of Visible Light 15h 37m
Length of Day
14h 32m
Tomorrow will be 2m 22s shorter.
Waxing Crescent, 34% of the Moon is Illuminated
Today
Waxing Crescent
Aug 3
First Quarter
Aug 10
Full
Aug 17
Last Quarter
Aug 25
New

Today's Extremes

State Highs State Lows

Community

WunderPhotos

Upload Photos

1,739,850 photos uploaded!

Nearby

Snow Depth

Station Depth Elevation
Burroughs Creek 1 in 8750 ft
Big Sandy Opening 1 in 9080 ft
Kendall R.S. 1 in 7740 ft
New Fork Lake 0 in 8340 ft
Gros Ventre Summit 0 in 8750 ft

Earthquake Activity

City Distance Mag. Time & Date
No recent earthquake activity has been reported nearby.
Minimum magnitude displayed is 2.5.

Coastal Water Temperatures

Place Temperature
No Stations Reporting

Nearby Weather Stations

There are no personal weather stations in this area.